Time;durP1;ratioP1;P1;durP2;ratioP2;P2;SDS_P1;SDS_P2;PMS_P1;PMS_P2;Temp;Humidity;BMP_temperature;BMP_pressure;BME280_temperature;BME280_humidity;BME280_pressure;Samples;Min_cycle;Max_cycle;Signal;HPM_P1;HPM_P2
2023/06/29 00:01:25;;;;;;;20.77;15.05;;;;;;;20.08;100.00;101497.03;5237065;28;20026;-70
2023/06/29 00:03:57;;;;;;;20.52;15.13;;;;;;;20.20;100.00;101496.75;5232460;28;20099;-70
2023/06/29 00:06:28;;;;;;;20.52;15.90;;;;;;;20.10;100.00;101491.47;5228331;28;20049;-70
2023/06/29 00:09:00;;;;;;;20.50;16.33;;;;;;;20.09;100.00;101485.16;5233155;28;20106;-70
2023/06/29 00:11:31;;;;;;;21.02;16.65;;;;;;;20.06;100.00;101481.94;5233898;28;20052;-70
2023/06/29 00:14:03;;;;;;;22.42;17.73;;;;;;;20.08;100.00;101477.22;5235500;28;20025;-70
2023/06/29 00:16:35;;;;;;;25.15;17.52;;;;;;;20.06;100.00;101477.41;5236765;28;20033;-70
2023/06/29 00:19:07;;;;;;;22.77;18.00;;;;;;;20.04;100.00;101470.41;5225202;28;20032;-70
2023/06/29 00:21:38;;;;;;;22.30;17.40;;;;;;;20.16;100.00;101464.53;5235039;28;20045;-70
2023/06/29 00:24:11;;;;;;;22.42;16.85;;;;;;;20.01;100.00;101466.19;5228187;28;20497;-70
2023/06/29 00:26:42;;;;;;;20.33;16.30;;;;;;;20.09;100.00;101463.50;5232824;28;20121;-70
2023/06/29 00:29:13;;;;;;;21.40;17.08;;;;;;;20.11;100.00;101466.06;5228487;28;20104;-70
2023/06/29 00:31:45;;;;;;;20.05;16.58;;;;;;;20.12;100.00;101459.63;5230425;28;20044;-70
2023/06/29 00:34:16;;;;;;;20.73;15.77;;;;;;;20.22;100.00;101467.63;5223156;28;20040;-70
2023/06/29 00:36:48;;;;;;;20.27;16.70;;;;;;;20.22;100.00;101462.19;5236771;28;20396;-70
2023/06/29 00:39:19;;;;;;;19.60;16.40;;;;;;;20.10;100.00;101448.13;5230661;28;20032;-70
2023/06/29 00:41:54;;;;;;;20.58;15.55;;;;;;;20.06;100.00;101455.72;5232115;28;20044;-70
2023/06/29 00:44:26;;;;;;;21.08;15.57;;;;;;;20.05;100.00;101462.13;5232417;28;20049;-70
2023/06/29 00:46:57;;;;;;;21.40;16.27;;;;;;;19.99;100.00;101454.66;5231671;28;20105;-70
2023/06/29 00:49:29;;;;;;;19.48;15.40;;;;;;;20.00;100.00;101459.09;5228671;28;20764;-70
2023/06/29 00:52:01;;;;;;;20.92;16.30;;;;;;;20.00;100.00;101455.50;5226447;28;20504;-70
2023/06/29 00:54:32;;;;;;;20.60;15.75;;;;;;;19.98;100.00;101452.97;5231221;28;20032;-70
2023/06/29 00:57:04;;;;;;;21.50;16.55;;;;;;;20.01;100.00;101444.53;5230050;28;20465;-70
2023/06/29 00:59:35;;;;;;;22.17;16.38;;;;;;;20.08;100.00;101448.28;5230898;28;20480;-70
2023/06/29 01:02:09;;;;;;;20.20;16.17;;;;;;;20.07;100.00;101434.88;5225934;28;20059;-70
2023/06/29 01:04:40;;;;;;;20.92;16.90;;;;;;;20.10;100.00;101437.28;5231375;28;20022;-70
2023/06/29 01:07:28;;;;;;;21.88;15.10;;;;;;;20.06;100.00;101442.19;5231967;28;20147;-70
2023/06/29 01:10:00;;;;;;;21.77;15.68;;;;;;;20.00;100.00;101432.00;5235791;28;20053;-70
2023/06/29 01:12:33;;;;;;;24.13;16.40;;;;;;;20.01;100.00;101436.41;5231941;28;20050;-70
2023/06/29 01:15:06;;;;;;;20.95;15.88;;;;;;;19.96;100.00;101439.59;5232243;28;20029;-70
2023/06/29 01:17:39;;;;;;;19.60;15.93;;;;;;;19.94;100.00;101438.94;5229516;28;20025;-71
2023/06/29 01:20:14;;;;;;;21.35;16.50;;;;;;;19.98;100.00;101437.59;5228524;28;20074;-70
2023/06/29 01:23:05;;;;;;;20.98;16.15;;;;;;;20.06;100.00;101442.19;5221202;28;20030;-70
2023/06/29 01:25:37;;;;;;;20.02;16.77;;;;;;;20.10;100.00;101440.81;5227987;28;20458;-70
2023/06/29 01:28:09;;;;;;;23.45;17.10;;;;;;;20.03;100.00;101436.22;5233925;28;20033;-70
2023/06/29 01:30:45;;;;;;;21.88;16.95;;;;;;;20.01;100.00;101432.84;5228367;28;20503;-70
2023/06/29 01:33:22;;;;;;;23.50;16.98;;;;;;;20.04;100.00;101422.53;5229339;28;20256;-70
2023/06/29 01:36:24;;;;;;;23.00;16.98;;;;;;;20.06;100.00;101419.63;5229278;28;20034;-70
2023/06/29 01:39:21;;;;;;;22.00;16.60;;;;;;;20.00;100.00;101421.16;5227890;28;20048;-70
2023/06/29 01:41:54;;;;;;;19.25;15.95;;;;;;;20.01;100.00;101427.44;5228351;28;20025;-70
2023/06/29 01:44:25;;;;;;;19.40;15.40;;;;;;;20.01;100.00;101422.84;5231326;28;20113;-70
2023/06/29 01:46:57;;;;;;;22.17;16.65;;;;;;;19.94;100.00;101411.84;5229214;28;20117;-70
2023/06/29 01:49:29;;;;;;;18.48;14.98;;;;;;;19.92;100.00;101416.56;5232076;28;20034;-70
2023/06/29 01:52:00;;;;;;;20.10;15.93;;;;;;;19.93;100.00;101418.25;5224504;28;20095;-70
2023/06/29 01:54:32;;;;;;;18.95;15.68;;;;;;;19.95;100.00;101410.81;5228459;28;20022;-70
2023/06/29 01:57:07;;;;;;;20.05;15.85;;;;;;;19.92;100.00;101413.00;5229777;28;20495;-70
2023/06/29 01:59:39;;;;;;;21.75;15.55;;;;;;;19.95;100.00;101415.38;5234807;28;20436;-70
2023/06/29 02:02:10;;;;;;;20.40;15.15;;;;;;;19.98;100.00;101417.75;5228129;28;20037;-70
2023/06/29 02:04:42;;;;;;;18.95;16.17;;;;;;;19.90;100.00;101404.19;5236123;28;20519;-70
2023/06/29 02:07:13;;;;;;;20.98;17.05;;;;;;;19.90;100.00;101412.31;5228094;28;20046;-70
2023/06/29 02:09:45;;;;;;;23.80;17.20;;;;;;;20.03;100.00;101401.84;5230804;28;20025;-70
2023/06/29 02:12:16;;;;;;;19.95;16.17;;;;;;;19.97;100.00;101406.06;5232171;28;20021;-70
2023/06/29 02:14:48;;;;;;;19.63;16.52;;;;;;;19.94;100.00;101400.13;5230756;28;20033;-70
2023/06/29 02:17:19;;;;;;;20.67;16.52;;;;;;;19.98;100.00;101396.94;5227763;28;20033;-70
2023/06/29 02:19:51;;;;;;;22.13;17.50;;;;;;;19.90;100.00;101393.34;5225281;28;20029;-70
2023/06/29 02:22:22;;;;;;;21.23;17.05;;;;;;;19.90;100.00;101393.34;5232516;28;20030;-70
2023/06/29 02:24:53;;;;;;;19.73;16.13;;;;;;;19.87;100.00;101401.84;5234083;28;20079;-70
2023/06/29 02:27:25;;;;;;;21.08;16.77;;;;;;;19.86;100.00;101392.00;5229561;28;20053;-71
2023/06/29 02:29:56;;;;;;;21.63;17.20;;;;;;;19.86;100.00;101398.25;5228716;28;20034;-70
2023/06/29 02:32:28;;;;;;;22.38;17.30;;;;;;;19.85;100.00;101393.00;5235596;28;20091;-70
2023/06/29 02:34:59;;;;;;;22.55;17.40;;;;;;;19.81;100.00;101394.34;5227121;28;20340;-70
2023/06/29 02:37:30;;;;;;;23.65;18.13;;;;;;;19.87;100.00;101386.41;5231590;28;20022;-70
2023/06/29 02:40:02;;;;;;;23.75;18.58;;;;;;;19.85;100.00;101384.88;5228899;28;20498;-71
2023/06/29 02:42:34;;;;;;;23.45;17.98;;;;;;;19.92;100.00;101385.91;5235268;28;20391;-71
2023/06/29 02:45:06;;;;;;;22.00;17.95;;;;;;;19.83;100.00;101382.34;5228269;28;20124;-70
2023/06/29 02:47:37;;;;;;;21.40;17.25;;;;;;;19.83;100.00;101374.22;5231675;28;20488;-70
2023/06/29 02:50:09;;;;;;;25.70;19.17;;;;;;;19.84;100.00;101383.19;5233164;28;20379;-70
2023/06/29 02:52:40;;;;;;;24.50;19.20;;;;;;;19.83;100.00;101376.06;5242881;28;20126;-70
2023/06/29 02:55:12;;;;;;;24.73;19.25;;;;;;;19.88;100.00;101373.72;5227975;28;20448;-70
2023/06/29 02:57:43;;;;;;;21.70;17.88;;;;;;;19.96;100.00;101381.84;5232830;28;20486;-70
2023/06/29 03:00:15;;;;;;;21.75;18.17;;;;;;;19.93;100.00;101376.78;5228941;28;20036;-70
2023/06/29 03:02:46;;;;;;;27.50;19.25;;;;;;;19.95;100.00;101367.47;5236209;28;20435;-70
2023/06/29 03:05:18;;;;;;;24.88;18.80;;;;;;;19.87;100.00;101370.19;5235701;28;20644;-70
2023/06/29 03:07:49;;;;;;;24.85;18.83;;;;;;;19.86;100.00;101376.59;5234014;28;20156;-70
2023/06/29 03:10:20;;;;;;;22.80;17.90;;;;;;;19.94;100.00;101375.75;5234352;28;20164;-71
2023/06/29 03:12:52;;;;;;;25.08;18.88;;;;;;;19.86;100.00;101367.63;5235846;28;20060;-70
2023/06/29 03:15:26;;;;;;;24.92;19.33;;;;;;;19.82;100.00;101374.38;5233685;28;20026;-71
2023/06/29 03:17:57;;;;;;;24.13;18.60;;;;;;;19.81;100.00;101375.38;5229559;28;20029;-70
2023/06/29 03:20:29;;;;;;;26.00;19.58;;;;;;;19.82;100.00;101371.69;5232855;28;20032;-70
2023/06/29 03:23:00;;;;;;;26.67;20.30;;;;;;;19.88;100.00;101373.72;5235369;28;20033;-70
2023/06/29 03:25:32;;;;;;;27.50;20.58;;;;;;;19.82;100.00;101368.97;5234050;28;20444;-70
2023/06/29 03:28:03;;;;;;;24.25;19.67;;;;;;;19.82;100.00;101360.84;5232609;28;20490;-70
2023/06/29 03:30:34;;;;;;;24.73;20.42;;;;;;;19.82;100.00;101364.41;5228128;28;20040;-70
2023/06/29 03:33:06;;;;;;;25.52;20.00;;;;;;;19.89;100.00;101361.88;5227289;28;20029;-70
2023/06/29 03:35:38;;;;;;;22.83;19.05;;;;;;;19.81;100.00;101365.44;5234023;28;20027;-70
2023/06/29 03:38:09;;;;;;;25.60;20.20;;;;;;;19.90;100.00;101358.16;5230387;28;20037;-70
2023/06/29 03:40:40;;;;;;;27.50;20.10;;;;;;;19.86;100.00;101354.94;5233692;28;20025;-70
2023/06/29 03:43:12;;;;;;;27.95;21.33;;;;;;;19.98;100.00;101367.16;5230937;28;20099;-70
2023/06/29 03:45:43;;;;;;;26.88;21.60;;;;;;;19.87;100.00;101353.94;5239277;28;20408;-70
2023/06/29 03:48:15;;;;;;;28.77;21.02;;;;;;;19.85;100.00;101363.22;5232088;28;20029;-70
2023/06/29 03:50:46;;;;;;;27.20;20.98;;;;;;;19.86;100.00;101359.50;5228914;28;20468;-70
2023/06/29 03:53:17;;;;;;;28.27;22.02;;;;;;;19.96;100.00;101365.59;5233393;28;20543;-70
2023/06/29 03:55:49;;;;;;;29.70;21.77;;;;;;;19.85;100.00;101360.50;5234307;28;20448;-70
2023/06/29 03:58:20;;;;;;;28.52;21.45;;;;;;;19.81;100.00;101356.44;5230498;28;20033;-70
2023/06/29 04:00:52;;;;;;;26.08;22.08;;;;;;;19.85;100.00;101350.53;5227652;28;20029;-70
2023/06/29 04:03:23;;;;;;;29.23;22.10;;;;;;;19.85;100.00;101344.25;5234076;28;20025;-70
2023/06/29 04:05:55;;;;;;;27.88;21.65;;;;;;;19.88;100.00;101341.22;5235843;28;20036;-69
2023/06/29 04:08:27;;;;;;;27.40;20.95;;;;;;;19.94;100.00;101340.56;5234937;28;20451;-70
2023/06/29 04:10:59;;;;;;;29.35;22.25;;;;;;;20.00;100.00;101339.03;5218146;28;20033;-70
2023/06/29 04:13:30;;;;;;;31.92;22.50;;;;;;;19.88;100.00;101341.22;5233859;28;20033;-70
2023/06/29 04:16:02;;;;;;;28.15;21.55;;;;;;;20.00;100.00;101334.50;5228129;28;20036;-70
2023/06/29 04:18:34;;;;;;;29.80;22.08;;;;;;;19.90;100.00;101340.03;5233922;28;20033;-70
2023/06/29 04:21:06;;;;;;;27.52;21.17;;;;;;;19.89;100.00;101327.53;5227267;28;20063;-70
2023/06/29 04:23:37;;;;;;;27.83;20.45;;;;;;;19.96;100.00;101336.69;5234301;28;20026;-70
2023/06/29 04:26:09;;;;;;;27.05;21.48;;;;;;;19.92;100.00;101337.16;5232541;28;20444;-70
2023/06/29 04:28:44;;;;;;;27.65;21.08;;;;;;;19.97;100.00;101334.81;5233681;28;20480;-70
2023/06/29 04:31:16;;;;;;;25.08;20.98;;;;;;;19.90;100.00;101336.47;5232195;28;20052;-70
2023/06/29 04:33:47;;;;;;;25.75;20.95;;;;;;;19.88;100.00;101331.22;5232302;28;20029;-70
2023/06/29 04:36:18;;;;;;;26.90;21.70;;;;;;;19.89;100.00;101334.81;5232127;28;20476;-70
2023/06/29 04:38:50;;;;;;;29.38;21.58;;;;;;;19.94;100.00;101336.00;5227312;28;20296;-70
2023/06/29 04:41:31;;;;;;;25.65;20.50;;;;;;;20.09;100.00;101340.75;5216055;28;20048;-70
2023/06/29 04:44:03;;;;;;;30.48;22.38;;;;;;;19.97;100.00;101335.66;5229847;28;20025;-70
2023/06/29 04:46:38;;;;;;;29.48;21.77;;;;;;;20.00;100.00;101331.78;5227248;28;20120;-70
2023/06/29 04:49:09;;;;;;;28.45;21.10;;;;;;;20.07;100.00;101324.66;5229085;28;20124;-70
2023/06/29 04:51:41;;;;;;;28.65;20.88;;;;;;;20.03;100.00;101331.44;5222048;28;20105;-70
2023/06/29 04:54:12;;;;;;;27.88;21.83;;;;;;;20.12;100.00;101330.44;5230340;28;20037;-70
2023/06/29 04:56:43;;;;;;;27.35;21.80;;;;;;;20.07;100.00;101330.06;5229833;28;20486;-70
2023/06/29 04:59:15;;;;;;;27.88;21.90;;;;;;;20.08;100.00;101330.94;5224231;28;20053;-70
2023/06/29 05:01:47;;;;;;;27.35;21.85;;;;;;;20.04;100.00;101325.00;5221233;28;20526;-70
2023/06/29 05:04:18;;;;;;;28.90;21.92;;;;;;;20.08;100.00;101337.19;5221197;28;20104;-70
2023/06/29 05:06:50;;;;;;;28.15;21.17;;;;;;;20.04;100.00;101330.44;5229993;28;20042;-70
2023/06/29 05:09:21;;;;;;;27.73;21.13;;;;;;;20.05;100.00;101328.56;5228521;28;20071;-70
2023/06/29 05:11:52;;;;;;;28.98;22.75;;;;;;;20.05;100.00;101329.41;5230025;28;20033;-70
2023/06/29 05:14:24;;;;;;;28.88;21.92;;;;;;;20.16;100.00;101339.06;5226369;28;20068;-70
2023/06/29 05:16:57;;;;;;;30.52;22.80;;;;;;;20.14;100.00;101333.81;5228219;28;20037;-70
2023/06/29 05:19:28;;;;;;;28.35;22.10;;;;;;;20.15;100.00;101330.09;5231301;28;20040;-70
2023/06/29 05:22:00;;;;;;;29.42;22.67;;;;;;;20.23;100.00;101323.84;5230156;28;20574;-70
2023/06/29 05:24:31;;;;;;;31.88;23.45;;;;;;;20.17;100.00;101319.94;5231622;28;20066;-70
2023/06/29 05:27:06;;;;;;;29.05;21.38;;;;;;;20.21;100.00;101320.41;5226587;28;20602;-70
2023/06/29 05:29:38;;;;;;;28.90;22.02;;;;;;;20.20;100.00;101326.88;5226745;28;20045;-70
2023/06/29 05:32:09;;;;;;;29.35;22.30;;;;;;;20.25;100.00;101320.94;5226684;28;20364;-70
2023/06/29 05:34:40;;;;;;;28.25;21.63;;;;;;;20.23;100.00;101322.97;5227430;28;20026;-70
2023/06/29 05:37:12;;;;;;;28.48;22.08;;;;;;;20.22;100.00;101327.56;5226268;28;20133;-70
2023/06/29 05:39:43;;;;;;;29.58;22.60;;;;;;;20.27;100.00;101317.06;5229635;28;20018;-70
2023/06/29 05:42:15;;;;;;;29.85;22.35;;;;;;;20.30;100.00;101324.00;5231576;28;20426;-70
2023/06/29 05:44:46;;;;;;;30.77;22.45;;;;;;;20.34;100.00;101314.50;5222183;28;20491;-70
2023/06/29 05:47:18;;;;;;;29.85;21.13;;;;;;;20.39;100.00;101320.28;5231424;28;20033;-70
2023/06/29 05:49:51;;;;;;;28.48;23.10;;;;;;;20.42;100.00;101319.91;5224992;28;20025;-70
2023/06/29 05:52:23;;;;;;;29.92;21.17;;;;;;;20.41;100.00;101306.56;5227545;28;20032;-70
2023/06/29 05:54:54;;;;;;;28.67;21.55;;;;;;;20.47;100.00;101319.41;5227906;28;20033;-70
2023/06/29 05:57:25;;;;;;;28.52;21.27;;;;;;;20.46;100.00;101309.56;5229073;28;20026;-70
2023/06/29 05:59:57;;;;;;;28.70;21.58;;;;;;;20.46;100.00;101315.88;5226776;28;20068;-70
2023/06/29 06:02:28;;;;;;;27.98;21.10;;;;;;;20.49;100.00;101314.66;5230289;28;20029;-70
2023/06/29 06:04:59;;;;;;;28.35;20.98;;;;;;;20.53;100.00;101314.13;5228316;28;20536;-71
2023/06/29 06:07:31;;;;;;;24.98;20.58;;;;;;;20.55;100.00;101317.53;5226544;28;20049;-70
2023/06/29 06:10:03;;;;;;;24.00;19.38;;;;;;;20.60;100.00;101314.34;5236075;28;20040;-70
2023/06/29 06:12:34;;;;;;;24.83;18.90;;;;;;;20.65;100.00;101308.41;5229718;28;20474;-70
2023/06/29 06:15:08;;;;;;;27.00;20.02;;;;;;;20.72;100.00;101317.53;5213908;28;20036;-70
2023/06/29 06:17:40;;;;;;;28.13;19.48;;;;;;;20.78;100.00;101316.84;5211870;28;20176;-70
2023/06/29 06:20:12;;;;;;;23.30;17.77;;;;;;;20.79;100.00;101298.69;5219401;28;20039;-70
2023/06/29 06:22:44;;;;;;;24.98;18.00;;;;;;;20.87;100.00;101304.13;5235942;28;20033;-70
2023/06/29 06:25:17;;;;;;;24.40;17.23;;;;;;;20.93;100.00;101306.97;5231001;28;20032;-70
2023/06/29 06:27:48;;;;;;;22.95;16.85;;;;;;;20.99;100.00;101304.59;5233309;28;20809;-70
2023/06/29 06:30:22;;;;;;;22.77;17.42;;;;;;;21.07;100.00;101307.28;5237330;28;20037;-70
2023/06/29 06:32:54;;;;;;;22.73;16.83;;;;;;;21.09;100.00;101307.94;5234830;28;20029;-70
2023/06/29 06:35:25;;;;;;;21.08;16.25;;;;;;;21.17;100.00;101305.22;5234662;28;20091;-70
2023/06/29 06:37:57;;;;;;;20.17;15.85;;;;;;;21.26;100.00;101306.84;5229511;28;20029;-70
2023/06/29 06:40:28;;;;;;;21.02;16.17;;;;;;;21.29;100.00;101311.09;5229350;28;20476;-71
2023/06/29 06:43:00;;;;;;;21.98;15.65;;;;;;;21.34;100.00;101305.97;5229710;28;20486;-70
2023/06/29 06:45:31;;;;;;;21.50;15.52;;;;;;;21.42;100.00;101300.50;5229559;28;20087;-70
2023/06/29 06:48:02;;;;;;;19.90;15.55;;;;;;;21.44;100.00;101290.34;5227413;28;20112;-70
2023/06/29 06:50:34;;;;;;;20.65;14.65;;;;;;;21.47;100.00;101300.00;5220839;28;20080;-70
2023/06/29 06:53:05;;;;;;;21.73;15.30;;;;;;;21.47;100.00;101292.69;5224114;28;20526;-70
2023/06/29 06:55:37;;;;;;;19.58;15.02;;;;;;;21.53;100.00;101302.00;5226467;28;20079;-70
2023/06/29 06:58:08;;;;;;;21.80;16.15;;;;;;;21.58;100.00;101288.75;5234753;28;20051;-70
2023/06/29 07:00:40;;;;;;;21.02;15.32;;;;;;;21.65;100.00;101291.56;5231838;28;20380;-70
2023/06/29 07:03:11;;;;;;;20.83;15.73;;;;;;;21.80;100.00;101291.66;5236514;28;20040;-70
2023/06/29 07:05:43;;;;;;;19.98;15.18;;;;;;;21.92;100.00;101284.78;5228988;28;20120;-70
2023/06/29 07:08:14;;;;;;;22.02;16.25;;;;;;;22.01;100.00;101286.38;5230345;28;20610;-71
2023/06/29 07:10:45;;;;;;;22.00;16.38;;;;;;;22.09;100.00;101288.19;5231726;28;21504;-70
2023/06/29 07:13:18;;;;;;;21.00;16.80;;;;;;;22.16;100.00;101289.16;5228431;28;20075;-70
2023/06/29 07:15:49;;;;;;;25.50;17.25;;;;;;;22.24;100.00;101288.25;5227976;28;20033;-70
2023/06/29 07:18:21;;;;;;;22.13;17.13;;;;;;;22.31;100.00;101289.25;5224666;28;20094;-70
2023/06/29 07:20:52;;;;;;;22.48;16.92;;;;;;;22.36;100.00;101284.09;5222938;28;20026;-70
2023/06/29 07:23:24;;;;;;;22.80;16.23;;;;;;;22.49;100.00;101288.88;5227025;28;20473;-70
2023/06/29 07:25:55;;;;;;;22.33;16.42;;;;;;;22.58;100.00;101293.22;5232207;28;20033;-70
2023/06/29 07:28:26;;;;;;;20.77;16.73;;;;;;;22.64;100.00;101278.88;5228341;28;20528;-70
2023/06/29 07:30:58;;;;;;;22.90;17.50;;;;;;;22.65;100.00;101287.91;5231148;28;20106;-70
2023/06/29 07:33:30;;;;;;;21.77;16.60;;;;;;;22.73;100.00;101279.63;5229784;28;20049;-71
2023/06/29 07:36:01;;;;;;;21.48;16.33;;;;;;;22.74;100.00;101278.59;5235206;28;20033;-70
2023/06/29 07:38:33;;;;;;;20.95;16.70;;;;;;;22.73;100.00;101279.63;5230504;28;20028;-70
2023/06/29 07:41:05;;;;;;;21.45;16.50;;;;;;;22.79;100.00;101278.03;5228039;28;20466;-70
2023/06/29 07:43:39;;;;;;;20.48;15.82;;;;;;;22.82;100.00;101272.22;5226328;28;20445;-70
2023/06/29 07:46:10;;;;;;;20.45;16.50;;;;;;;22.88;100.00;101275.03;5230875;28;20080;-70
2023/06/29 07:48:42;;;;;;;20.77;16.35;;;;;;;22.97;100.00;101269.50;5234956;28;20052;-71
2023/06/29 07:51:14;;;;;;;21.75;16.95;;;;;;;23.09;100.00;101270.75;5235964;28;20418;-70
2023/06/29 07:53:45;;;;;;;20.45;16.50;;;;;;;23.22;100.00;101272.78;5224498;28;20068;-71
2023/06/29 07:56:18;;;;;;;21.65;17.50;;;;;;;23.29;100.00;101269.09;5228423;28;20039;-70
2023/06/29 07:58:49;;;;;;;20.70;17.23;;;;;;;23.32;100.00;101269.75;5231284;28;20127;-71
2023/06/29 08:01:20;;;;;;;21.70;17.30;;;;;;;23.35;100.00;101277.53;5230545;28;20144;-70
2023/06/29 08:03:52;;;;;;;22.95;16.65;;;;;;;23.38;100.00;101267.13;5232718;28;20056;-70
2023/06/29 08:06:23;;;;;;;23.42;17.30;;;;;;;23.41;100.00;101264.00;5237921;28;20057;-70
2023/06/29 08:08:54;;;;;;;21.92;16.60;;;;;;;23.38;100.00;101271.72;5230050;28;20033;-70
2023/06/29 08:11:27;;;;;;;23.58;18.15;;;;;;;23.31;100.00;101268.91;5225762;28;20026;-70
2023/06/29 08:13:58;;;;;;;22.13;17.45;;;;;;;23.36;100.00;101258.31;5234592;28;20029;-70
2023/06/29 08:16:30;;;;;;;21.00;16.33;;;;;;;23.39;100.00;101262.50;5233163;28;20534;-70
2023/06/29 08:19:01;;;;;;;21.95;16.75;;;;;;;23.45;100.00;101262.59;5230096;28;20124;-70
2023/06/29 08:21:33;;;;;;;21.15;17.23;;;;;;;23.48;100.00;101262.19;5229488;28;20029;-70
2023/06/29 08:24:04;;;;;;;24.35;17.75;;;;;;;23.49;100.00;101260.31;5231104;28;20021;-71
2023/06/29 08:26:36;;;;;;;22.35;18.33;;;;;;;23.57;100.00;101265.66;5231938;28;20029;-70
2023/06/29 08:29:07;;;;;;;23.63;18.48;;;;;;;23.63;100.00;101272.22;5230060;28;20034;-70
2023/06/29 08:31:39;;;;;;;23.92;18.40;;;;;;;23.65;100.00;101261.97;5229733;28;20506;-70
2023/06/29 08:34:11;;;;;;;23.00;18.08;;;;;;;23.62;100.00;101265.91;5223238;28;20117;-70
2023/06/29 08:36:42;;;;;;;24.45;18.63;;;;;;;23.60;100.00;101265.25;5223806;28;20030;-71
2023/06/29 08:39:13;;;;;;;24.23;18.20;;;;;;;23.60;100.00;101267.97;5221886;28;20037;-70
2023/06/29 08:41:45;;;;;;;23.50;17.48;;;;;;;23.61;100.00;101264.22;5223196;28;20021;-70
2023/06/29 08:44:16;;;;;;;22.05;17.88;;;;;;;23.60;100.00;101253.53;5232405;28;20495;-70
2023/06/29 08:46:48;;;;;;;22.52;18.00;;;;;;;23.77;100.00;101265.03;5225009;28;20030;-71
2023/06/29 08:49:22;;;;;;;23.67;18.33;;;;;;;23.82;100.00;101257.97;5228744;28;20822;-71
2023/06/29 08:51:58;;;;;;;23.88;18.92;;;;;;;23.95;100.00;101259.13;5235067;28;20040;-70
2023/06/29 08:54:31;;;;;;;23.30;18.33;;;;;;;24.05;100.00;101255.03;5227885;28;20091;-70
2023/06/29 08:57:04;;;;;;;23.67;17.85;;;;;;;24.13;100.00;101256.78;5228766;28;20076;-71
2023/06/29 08:59:37;;;;;;;24.92;18.85;;;;;;;24.26;100.00;101256.91;5229565;28;20045;-71
2023/06/29 09:02:10;;;;;;;23.30;19.05;;;;;;;24.37;100.00;101250.03;5229823;28;20087;-71
2023/06/29 09:04:44;;;;;;;24.10;18.50;;;;;;;24.51;100.00;101250.13;5234062;28;20017;-70
2023/06/29 09:07:15;;;;;;;22.45;18.02;;;;;;;24.55;100.00;101241.41;5228005;28;20153;-71
2023/06/29 09:09:47;;;;;;;22.15;17.70;;;;;;;24.53;100.00;101253.56;5226916;28;20478;-71
2023/06/29 09:12:18;;;;;;;22.65;17.88;;;;;;;24.51;100.00;101251.03;5224006;28;20380;-70
2023/06/29 09:14:51;;;;;;;22.15;18.30;;;;;;;24.46;100.00;101251.56;5230925;28;20025;-70
2023/06/29 09:17:22;;;;;;;20.48;16.48;;;;;;;24.44;100.00;101242.75;5230769;28;20112;-71
2023/06/29 09:19:56;;;;;;;21.08;17.10;;;;;;;24.45;100.00;101249.91;5224346;28;20022;-70
2023/06/29 09:22:28;;;;;;;20.55;17.05;;;;;;;24.39;100.00;101247.97;5228026;28;20036;-71
2023/06/29 09:25:03;;;;;;;23.00;17.40;;;;;;;24.34;100.00;101242.28;5228948;28;20013;-70
2023/06/29 09:27:35;;;;;;;21.40;17.35;;;;;;;24.30;100.00;101245.56;5231400;28;20049;-70
2023/06/29 09:30:08;;;;;;;25.65;18.50;;;;;;;24.25;100.00;101246.19;5227426;28;20093;-70
2023/06/29 09:32:39;;;;;;;21.90;17.63;;;;;;;24.24;100.00;101244.50;5228198;28;20029;-70
2023/06/29 09:35:11;;;;;;;20.60;17.23;;;;;;;24.22;100.00;101250.16;5230058;28;20047;-70
2023/06/29 09:37:43;;;;;;;21.45;17.98;;;;;;;24.17;100.00;101244.44;5225455;28;20037;-70
2023/06/29 09:40:15;;;;;;;24.20;18.05;;;;;;;24.17;100.00;101246.34;5234974;28;20030;-70
2023/06/29 09:42:46;;;;;;;21.55;17.88;;;;;;;24.13;100.00;101247.78;5227411;28;20498;-70
2023/06/29 09:45:18;;;;;;;27.65;20.50;;;;;;;24.16;100.00;101253.69;5231774;28;20033;-70
2023/06/29 09:47:51;;;;;;;24.60;18.92;;;;;;;24.20;100.00;101249.50;5227239;28;20021;-71
2023/06/29 09:50:23;;;;;;;22.83;18.87;;;;;;;24.20;100.00;101254.09;5229412;28;20030;-71
2023/06/29 09:52:55;;;;;;;23.67;19.05;;;;;;;24.25;100.00;101252.47;5225643;28;20291;-70
2023/06/29 09:55:29;;;;;;;27.58;19.27;;;;;;;24.35;100.00;101251.28;5230585;28;20076;-70
2023/06/29 09:58:01;;;;;;;24.45;19.20;;;;;;;24.34;100.00;101250.44;5222961;28;20493;-70
2023/06/29 10:00:33;;;;;;;25.05;19.80;;;;;;;24.34;100.00;101255.91;5236338;28;20039;-70
2023/06/29 10:03:04;;;;;;;23.52;19.30;;;;;;;24.41;100.00;101250.47;5233883;28;20040;-70
2023/06/29 10:05:37;;;;;;;24.83;19.80;;;;;;;24.41;100.00;101254.06;5228983;28;20026;-70
2023/06/29 10:08:11;;;;;;;24.20;19.67;;;;;;;24.39;100.00;101247.97;5230213;28;20048;-70
2023/06/29 10:10:44;;;;;;;24.13;18.67;;;;;;;24.35;100.00;101251.28;5225061;28;20038;-70
2023/06/29 10:13:17;;;;;;;23.90;19.05;;;;;;;24.43;100.00;101246.53;5231341;28;20021;-71
2023/06/29 10:15:51;;;;;;;25.52;19.45;;;;;;;24.48;100.00;101243.19;5232915;28;20116;-71
2023/06/29 10:18:28;;;;;;;24.05;19.05;;;;;;;24.52;100.00;101249.97;5233663;28;20031;-70
2023/06/29 10:21:00;;;;;;;24.27;19.75;;;;;;;24.56;100.00;101250.41;5231906;28;20037;-71
2023/06/29 10:23:34;;;;;;;26.67;19.65;;;;;;;24.57;100.00;101252.13;5230802;28;20515;-71
2023/06/29 10:26:06;;;;;;;25.35;19.90;;;;;;;24.62;100.00;101258.66;5232768;28;20041;-71
2023/06/29 10:28:38;;;;;;;24.70;20.10;;;;;;;24.61;100.00;101256.13;5232002;28;20474;-71
2023/06/29 10:31:09;;;;;;;26.00;20.88;;;;;;;24.57;100.00;101250.22;5232268;28;20076;-71
2023/06/29 10:33:51;;;;;;;28.48;20.13;;;;;;;24.60;100.00;101254.41;5217736;28;20104;-71
2023/06/29 10:36:23;;;;;;;27.58;20.63;;;;;;;24.41;100.00;101245.03;5213961;28;20036;-71
2023/06/29 10:38:55;;;;;;;26.65;20.25;;;;;;;24.32;100.00;101246.25;5215119;28;21842;-71
2023/06/29 10:41:27;;;;;;;26.42;20.60;;;;;;;24.31;100.00;101250.84;5220094;28;20029;-71
2023/06/29 10:44:04;;;;;;;26.27;21.00;;;;;;;24.30;100.00;101246.44;5212341;28;20117;-71
2023/06/29 10:46:45;;;;;;;26.38;21.13;;;;;;;24.26;100.00;101247.88;5227909;28;20090;-71
2023/06/29 10:49:24;;;;;;;24.00;19.65;;;;;;;24.30;100.00;101243.72;5228232;28;20052;-70
2023/06/29 10:52:04;;;;;;;28.25;21.13;;;;;;;24.31;100.00;101248.09;5217309;28;20187;-70
2023/06/29 10:54:35;;;;;;;26.13;20.08;;;;;;;24.26;100.00;101243.25;5228699;28;20026;-71
2023/06/29 10:57:07;;;;;;;27.17;21.45;;;;;;;24.28;100.00;101240.34;5226604;28;20365;-71
2023/06/29 10:59:39;;;;;;;27.33;21.05;;;;;;;24.32;100.00;101241.63;5233316;28;20116;-70
2023/06/29 11:02:11;;;;;;;26.40;20.48;;;;;;;24.37;100.00;101241.03;5234808;28;20053;-71
2023/06/29 11:04:43;;;;;;;28.65;21.10;;;;;;;24.38;100.00;101240.00;5234290;28;20441;-70
2023/06/29 11:07:15;;;;;;;25.98;20.38;;;;;;;24.37;100.00;101246.47;5232627;28;20120;-71
2023/06/29 11:09:47;;;;;;;26.27;21.30;;;;;;;24.43;100.00;101238.34;5236546;28;20120;-71
2023/06/29 11:12:18;;;;;;;24.58;20.10;;;;;;;24.44;100.00;101240.03;5236025;28;20116;-70
2023/06/29 11:14:54;;;;;;;26.05;20.60;;;;;;;24.48;100.00;101237.75;5235059;28;20508;-71
2023/06/29 11:17:26;;;;;;;26.02;20.02;;;;;;;24.59;100.00;101236.38;5235273;28;20108;-71
2023/06/29 11:19:57;;;;;;;26.35;20.77;;;;;;;24.62;100.00;101236.81;5231497;28;20120;-71
2023/06/29 11:22:29;;;;;;;25.42;20.70;;;;;;;24.65;100.00;101230.94;5232775;28;20022;-71
2023/06/29 11:25:00;;;;;;;27.55;21.17;;;;;;;24.67;100.00;101236.22;5228083;28;20087;-70